Time;durP1;ratioP1;P1;durP2;ratioP2;P2;SDS_P1;SDS_P2;PMS_P1;PMS_P2;Temp;Humidity;BMP_temperature;BMP_pressure;BME280_temperature;BME280_humidity;BME280_pressure;Samples;Min_cycle;Max_cycle;Signal;HPM_P1;HPM_P2
2021/04/30 00:01:30;;;;;;;4.05;2.90;;;;;;;21.90;50.78;100513.29;1645391;85;21234;-63
2021/04/30 00:03:57;;;;;;;4.40;3.20;;;;;;;21.90;50.76;100500.22;1681356;83;21667;-63
2021/04/30 00:06:24;;;;;;;3.77;2.90;;;;;;;21.90;50.75;100479.45;1686444;83;21169;-62
2021/04/30 00:08:51;;;;;;;3.60;2.75;;;;;;;21.90;50.71;100468.97;1682953;83;21275;-62
2021/04/30 00:11:18;;;;;;;3.42;2.65;;;;;;;21.87;50.71;100475.41;1679255;83;21231;-63
2021/04/30 00:13:45;;;;;;;3.98;3.17;;;;;;;21.86;50.71;100472.39;1684539;83;21153;-62
2021/04/30 00:16:11;;;;;;;3.72;3.05;;;;;;;21.85;50.71;100488.76;1683397;83;21220;-62
2021/04/30 00:18:38;;;;;;;3.60;3.00;;;;;;;21.84;50.72;100524.55;1685494;83;21268;-62
2021/04/30 00:21:05;;;;;;;3.87;3.00;;;;;;;21.84;50.72;100543.12;1685916;83;22440;-62
2021/04/30 00:23:34;;;;;;;3.27;2.65;;;;;;;21.84;50.72;100534.81;1683796;83;21199;-62
2021/04/30 00:26:06;;;;;;;3.52;2.62;;;;;;;21.83;50.72;100538.72;1682183;83;21185;-62
2021/04/30 00:28:32;;;;;;;3.77;2.83;;;;;;;21.83;50.71;100535.95;1684594;83;21163;-62
2021/04/30 00:31:08;;;;;;;3.47;2.87;;;;;;;21.83;50.70;100556.72;1685753;84;21179;-62
2021/04/30 00:33:35;;;;;;;3.60;2.55;;;;;;;21.84;50.71;100557.78;1682745;83;22459;-63
2021/04/30 00:36:02;;;;;;;5.78;3.30;;;;;;;21.85;50.67;100542.77;1686463;83;21197;-63
2021/04/30 00:38:29;;;;;;;3.70;2.77;;;;;;;21.85;50.67;100542.77;1684701;85;21563;-63
2021/04/30 00:40:59;;;;;;;3.70;2.70;;;;;;;21.87;50.64;100538.28;1683584;83;21215;-63
2021/04/30 00:43:26;;;;;;;5.62;2.77;;;;;;;21.87;50.65;100523.05;1683389;83;21201;-63
2021/04/30 00:45:53;;;;;;;4.28;3.08;;;;;;;21.86;50.62;100528.34;1685752;83;22088;-63
2021/04/30 00:48:21;;;;;;;3.55;2.55;;;;;;;21.86;50.58;100534.70;1686136;84;21868;-63
2021/04/30 00:50:49;;;;;;;4.10;2.67;;;;;;;21.85;50.59;100535.05;1682616;84;21247;-63
2021/04/30 00:53:16;;;;;;;4.53;2.65;;;;;;;21.83;50.58;100539.53;1686098;84;21535;-62
2021/04/30 00:55:43;;;;;;;4.30;2.60;;;;;;;21.82;50.59;100529.59;1685274;84;21198;-63
2021/04/30 00:58:13;;;;;;;4.33;2.83;;;;;;;21.81;50.56;100513.33;1697582;83;22399;-63
2021/04/30 01:00:40;;;;;;;3.67;2.40;;;;;;;21.80;50.59;100505.59;1658157;84;21207;-64
2021/04/30 01:03:08;;;;;;;4.62;2.80;;;;;;;21.79;50.59;100508.67;1676716;84;21949;-63
2021/04/30 01:05:35;;;;;;;4.03;2.72;;;;;;;21.79;50.59;100512.83;1647271;84;21237;-62
2021/04/30 01:08:03;;;;;;;3.40;2.60;;;;;;;21.78;50.60;100514.78;1682524;83;21269;-62
2021/04/30 01:10:30;;;;;;;3.80;2.65;;;;;;;21.79;50.59;100515.60;1696457;83;21611;-62
2021/04/30 01:12:56;;;;;;;4.33;2.83;;;;;;;21.79;50.57;100510.88;1693559;83;21600;-61
2021/04/30 01:15:24;;;;;;;3.30;2.65;;;;;;;21.79;50.57;100517.80;1644494;85;21237;-61
2021/04/30 01:17:50;;;;;;;4.80;3.10;;;;;;;21.82;50.58;100530.16;1683699;83;21249;-61
2021/04/30 01:20:20;;;;;;;3.80;2.87;;;;;;;21.82;50.54;100538.47;1684562;83;21163;-61
2021/04/30 01:22:52;;;;;;;3.58;2.60;;;;;;;21.83;50.53;100533.17;1683751;84;21206;-63
2021/04/30 01:25:23;;;;;;;3.92;2.80;;;;;;;21.83;50.51;100523.48;1684396;83;21252;-64
2021/04/30 01:27:50;;;;;;;4.10;2.80;;;;;;;21.82;50.51;100520.47;1686702;83;21214;-64
2021/04/30 01:30:26;;;;;;;3.47;2.67;;;;;;;21.83;50.50;100515.98;1688475;83;21239;-63
2021/04/30 01:32:52;;;;;;;3.75;3.02;;;;;;;21.82;50.46;100511.59;1695443;83;21226;-64
2021/04/30 01:35:29;;;;;;;3.92;3.08;;;;;;;21.82;50.45;100510.77;1693342;83;21590;-64
2021/04/30 01:37:56;;;;;;;3.83;3.10;;;;;;;21.80;50.42;100505.59;1691586;83;21235;-63
2021/04/30 01:40:31;;;;;;;3.80;2.72;;;;;;;21.77;50.44;100499.30;1689560;83;21577;-64
2021/04/30 01:43:09;;;;;;;3.70;2.50;;;;;;;21.76;50.44;100504.63;1695199;83;21254;-64
2021/04/30 01:45:40;;;;;;;3.45;2.80;;;;;;;21.75;50.46;100511.30;1692984;83;21518;-64
2021/04/30 01:51:06;;;;;;;3.20;2.55;;;;;;;21.74;50.46;100512.44;1753929;81;21268;-65
2021/04/30 01:53:36;;;;;;;3.83;2.42;;;;;;;21.74;50.46;100520.75;1747292;81;21168;-64
2021/04/30 01:56:05;;;;;;;3.72;2.90;;;;;;;21.74;50.46;100517.16;1753624;80;21584;-64
2021/04/30 01:58:31;;;;;;;4.50;2.80;;;;;;;21.74;50.45;100500.55;1757473;80;21209;-64
2021/04/30 02:00:58;;;;;;;5.10;2.72;;;;;;;21.75;50.44;100491.11;1740093;80;21265;-64
2021/04/30 02:03:25;;;;;;;4.40;3.00;;;;;;;21.75;50.45;100487.77;1758692;80;21192;-65
2021/04/30 02:05:52;;;;;;;3.83;2.95;;;;;;;21.76;50.44;100485.81;1757640;80;21572;-64
2021/04/30 02:08:19;;;;;;;4.03;2.98;;;;;;;21.77;50.41;100488.23;1749689;80;21200;-65
2021/04/30 02:10:45;;;;;;;4.08;2.58;;;;;;;21.77;50.38;100477.16;1754622;80;22324;-64
2021/04/30 02:13:12;;;;;;;3.95;2.98;;;;;;;21.77;50.38;100479.92;1753796;80;21971;-64
2021/04/30 02:15:42;;;;;;;4.30;2.60;;;;;;;21.78;50.37;100487.09;1753837;80;21169;-63
2021/04/30 02:18:08;;;;;;;3.30;2.52;;;;;;;21.79;50.38;100493.45;1752531;80;21185;-63
2021/04/30 02:20:35;;;;;;;3.67;2.60;;;;;;;21.78;50.35;100496.78;1757143;80;21220;-63
2021/04/30 02:23:01;;;;;;;3.45;2.80;;;;;;;21.78;50.33;100491.25;1754193;80;21596;-63
2021/04/30 02:25:28;;;;;;;4.00;2.83;;;;;;;21.77;50.31;100484.08;1756029;80;21192;-63
2021/04/30 02:27:57;;;;;;;3.85;2.85;;;;;;;21.75;50.28;100491.92;1751245;80;21925;-63
2021/04/30 02:30:24;;;;;;;3.35;2.62;;;;;;;21.74;50.29;100501.37;1752029;80;21207;-64
2021/04/30 02:32:51;;;;;;;2.95;2.50;;;;;;;21.72;50.31;100491.78;1756376;80;21183;-64
2021/04/30 02:35:27;;;;;;;3.12;2.40;;;;;;;21.70;50.34;100494.05;1766171;80;21179;-64
2021/04/30 02:37:54;;;;;;;3.75;3.00;;;;;;;21.69;50.34;100500.16;1772462;80;21991;-64
2021/04/30 02:40:26;;;;;;;3.02;2.40;;;;;;;21.68;50.35;100493.02;1760872;80;21189;-64
2021/04/30 02:42:56;;;;;;;3.35;2.50;;;;;;;21.69;50.36;100506.27;1778281;80;21213;-63
2021/04/30 02:45:22;;;;;;;4.13;2.77;;;;;;;21.68;50.35;100509.63;1756414;80;21209;-64
2021/04/30 02:47:50;;;;;;;3.25;2.58;;;;;;;21.69;50.36;100518.73;1756579;81;21545;-63
2021/04/30 02:50:20;;;;;;;4.33;2.80;;;;;;;21.70;50.35;100524.52;1742240;80;23578;-62
2021/04/30 02:52:46;;;;;;;3.10;2.40;;;;;;;21.70;50.33;100525.89;1733403;82;21165;-64
2021/04/30 02:55:15;;;;;;;4.03;2.83;;;;;;;21.71;50.33;100524.19;1751605;80;21130;-62
2021/04/30 02:57:42;;;;;;;3.62;2.60;;;;;;;21.71;50.32;100520.03;1750229;80;21181;-62
2021/04/30 03:00:10;;;;;;;5.37;2.92;;;;;;;21.72;50.29;100518.90;1759548;80;21615;-61
2021/04/30 03:02:36;;;;;;;4.22;2.55;;;;;;;21.73;50.29;100530.77;1748556;80;21615;-65
2021/04/30 03:05:04;;;;;;;3.05;2.60;;;;;;;21.73;50.26;100517.73;1755531;80;21145;-65
2021/04/30 03:07:30;;;;;;;4.28;2.70;;;;;;;21.73;50.25;100520.50;1756614;80;21180;-64
2021/04/30 03:09:57;;;;;;;4.47;2.75;;;;;;;21.74;50.24;100525.47;1756681;80;21197;-62
2021/04/30 03:12:23;;;;;;;3.67;2.52;;;;;;;21.74;50.24;100522.13;1741728;80;21144;-64
2021/04/30 03:14:50;;;;;;;2.95;2.52;;;;;;;21.74;50.23;100515.78;1738956;81;21523;-64
2021/04/30 03:17:16;;;;;;;4.60;2.92;;;;;;;21.74;50.22;100515.21;1741677;80;21499;-64
2021/04/30 03:19:43;;;;;;;3.25;2.50;;;;;;;21.74;50.22;100527.67;1756916;80;21190;-64
2021/04/30 03:22:09;;;;;;;4.00;2.80;;;;;;;21.73;50.18;100528.81;1731866;80;21582;-65
2021/04/30 03:24:36;;;;;;;5.58;3.10;;;;;;;21.71;50.19;100525.58;1743681;80;21212;-64
2021/04/30 03:27:03;;;;;;;4.75;2.90;;;;;;;21.69;50.20;100530.61;1739920;80;21212;-65
2021/04/30 03:29:30;;;;;;;3.47;2.70;;;;;;;21.67;50.22;100530.16;1734116;80;21176;-64
2021/04/30 03:31:56;;;;;;;3.70;2.80;;;;;;;21.67;50.24;100529.34;1731294;80;21460;-64
2021/04/30 03:34:22;;;;;;;4.95;3.27;;;;;;;21.68;50.30;100530.41;1735313;80;21492;-64
2021/04/30 03:36:49;;;;;;;4.25;2.98;;;;;;;21.69;50.32;100537.53;1729051;80;21739;-63
2021/04/30 03:39:15;;;;;;;4.37;3.20;;;;;;;21.70;50.35;100525.89;1733034;80;23112;-63
2021/04/30 03:41:42;;;;;;;4.20;3.10;;;;;;;21.71;50.40;100533.06;1742651;80;21180;-65
2021/04/30 03:44:08;;;;;;;4.53;3.30;;;;;;;21.72;50.40;100545.20;1730833;80;21266;-63
2021/04/30 03:46:35;;;;;;;3.50;2.83;;;;;;;21.73;50.45;100545.42;1729543;80;21186;-63
2021/04/30 03:49:02;;;;;;;5.30;3.33;;;;;;;21.75;50.48;100554.80;1739514;80;21214;-64
2021/04/30 03:51:28;;;;;;;4.83;3.05;;;;;;;21.75;50.49;100551.45;1744342;80;21222;-65
2021/04/30 03:53:55;;;;;;;5.75;3.30;;;;;;;21.77;50.52;100559.41;1737476;80;21241;-62
2021/04/30 03:56:21;;;;;;;4.85;3.20;;;;;;;21.77;50.55;100567.16;1742299;81;21143;-61
2021/04/30 03:58:47;;;;;;;8.95;4.92;;;;;;;21.79;50.57;100564.88;1732970;80;22002;-61
2021/04/30 04:01:14;;;;;;;6.45;2.87;;;;;;;21.79;50.63;100563.49;1737679;81;21133;-61
2021/04/30 04:03:40;;;;;;;4.87;3.00;;;;;;;21.80;50.66;100559.59;1752816;81;21242;-62
2021/04/30 04:06:07;;;;;;;3.50;2.87;;;;;;;21.80;50.70;100556.00;1735045;82;21160;-61
2021/04/30 04:08:33;;;;;;;7.80;3.95;;;;;;;21.76;50.75;100558.63;1736434;81;21177;-62
2021/04/30 04:11:00;;;;;;;13.22;7.47;;;;;;;21.75;50.80;100563.91;1736863;82;21214;-61
2021/04/30 04:13:27;;;;;;;9.98;3.80;;;;;;;21.73;50.85;100563.98;1747194;81;21140;-62
2021/04/30 04:16:02;;;;;;;11.25;3.20;;;;;;;21.69;50.91;100550.00;1759915;80;22171;-62
2021/04/30 04:18:29;;;;;;;3.50;2.92;;;;;;;21.67;50.97;100556.45;1733458;81;21510;-62
2021/04/30 04:20:56;;;;;;;5.03;3.17;;;;;;;21.64;51.05;100552.16;1736115;81;21383;-60
2021/04/30 04:23:22;;;;;;;4.40;2.98;;;;;;;21.61;51.13;100553.61;1734284;82;21583;-61
2021/04/30 04:25:48;;;;;;;4.58;3.05;;;;;;;21.59;51.21;100554.53;1736985;81;21187;-60
2021/04/30 04:28:15;;;;;;;4.92;3.12;;;;;;;21.57;51.26;100561.52;1743272;80;21271;-59
2021/04/30 04:30:41;;;;;;;8.50;3.10;;;;;;;21.56;51.31;100556.55;1739066;80;20957;-60
2021/04/30 04:33:08;;;;;;;5.65;3.40;;;;;;;21.57;51.34;100561.52;1748674;80;21162;-60
2021/04/30 04:35:34;;;;;;;6.25;2.98;;;;;;;21.57;51.36;100549.88;1739060;80;20953;-60
2021/04/30 04:38:00;;;;;;;4.35;3.02;;;;;;;21.59;51.31;100551.77;1744182;80;21561;-59
2021/04/30 04:40:28;;;;;;;4.42;3.00;;;;;;;21.60;51.28;100556.13;1742139;81;21209;-60
2021/04/30 04:42:54;;;;;;;4.62;2.22;;;;;;;21.62;51.23;100558.58;1739098;81;21153;-60
2021/04/30 04:45:21;;;;;;;3.12;2.52;;;;;;;21.64;51.20;100557.69;1732529;81;21564;-59
2021/04/30 04:47:47;;;;;;;3.77;2.17;;;;;;;21.65;51.17;100561.50;1756500;80;21546;-60
2021/04/30 04:50:14;;;;;;;3.25;2.40;;;;;;;21.66;51.11;100564.52;1737600;80;21152;-60
2021/04/30 04:52:41;;;;;;;3.42;2.70;;;;;;;21.68;51.06;100566.97;1743063;80;21206;-60
2021/04/30 04:55:11;;;;;;;3.17;2.67;;;;;;;21.70;51.02;100559.13;1718795;81;21097;-62
2021/04/30 04:57:40;;;;;;;3.70;3.27;;;;;;;21.71;50.99;100562.95;1737097;81;21001;-59
2021/04/30 05:00:07;;;;;;;4.58;2.65;;;;;;;21.72;50.95;100561.82;1725728;80;21560;-60
2021/04/30 05:02:34;;;;;;;2.87;2.37;;;;;;;21.74;50.94;100567.82;1737136;80;21131;-60
2021/04/30 05:05:00;;;;;;;3.60;2.62;;;;;;;21.75;50.90;100573.61;1745474;80;21390;-60
2021/04/30 05:07:27;;;;;;;5.10;2.72;;;;;;;21.76;50.88;100571.09;1746645;80;21211;-60
2021/04/30 05:09:53;;;;;;;4.00;2.65;;;;;;;21.77;50.85;100569.92;1731291;82;21135;-60
2021/04/30 05:12:20;;;;;;;3.42;2.55;;;;;;;21.78;50.84;100575.70;1735844;81;21203;-60
2021/04/30 05:14:46;;;;;;;4.40;2.83;;;;;;;21.79;50.81;100582.87;1737305;81;21178;-60
2021/04/30 05:17:13;;;;;;;5.58;2.60;;;;;;;21.79;50.78;100580.11;1736586;80;21211;-60
2021/04/30 05:19:39;;;;;;;4.12;2.62;;;;;;;21.81;50.79;100580.58;1738614;80;21166;-60
2021/04/30 05:22:08;;;;;;;6.85;2.70;;;;;;;21.82;50.76;100585.55;1750844;80;21584;-60
2021/04/30 05:24:34;;;;;;;4.40;3.15;;;;;;;21.83;50.75;100598.26;1733545;81;21133;-61
2021/04/30 05:27:04;;;;;;;4.37;2.87;;;;;;;21.83;50.73;100593.53;1734569;81;21127;-61
2021/04/30 05:29:32;;;;;;;4.92;3.08;;;;;;;21.83;50.71;100594.92;1742346;80;21196;-60
2021/04/30 05:31:58;;;;;;;4.55;3.37;;;;;;;21.84;50.70;100604.05;1692464;82;21545;-60
2021/04/30 05:34:25;;;;;;;5.05;3.17;;;;;;;21.85;50.67;100607.06;1747131;80;21170;-60
2021/04/30 05:36:51;;;;;;;4.28;3.00;;;;;;;21.85;50.66;100612.00;1746543;80;21148;-60
2021/04/30 05:39:18;;;;;;;5.55;3.25;;;;;;;21.86;50.65;100612.81;1747621;80;21187;-60
2021/04/30 05:41:44;;;;;;;3.98;2.80;;;;;;;21.84;50.64;100615.12;1736179;81;21206;-60
2021/04/30 05:44:11;;;;;;;4.20;2.92;;;;;;;21.85;50.62;100619.53;1738557;80;21605;-60
2021/04/30 05:46:37;;;;;;;4.75;3.00;;;;;;;21.84;50.61;100621.48;1752567;80;21155;-60
2021/04/30 05:49:04;;;;;;;4.97;3.30;;;;;;;21.85;50.60;100629.22;1745439;80;21162;-60
2021/04/30 05:51:30;;;;;;;4.70;2.65;;;;;;;21.84;50.58;100628.41;1735985;80;21147;-60
2021/04/30 05:53:56;;;;;;;3.27;2.58;;;;;;;21.83;50.57;100628.16;1751125;80;21062;-61
2021/04/30 05:56:23;;;;;;;4.28;2.98;;;;;;;21.85;50.54;100633.37;1747723;80;21566;-60
2021/04/30 05:58:49;;;;;;;4.50;2.90;;;;;;;21.85;50.53;100634.76;1737541;81;20996;-60
2021/04/30 06:01:16;;;;;;;4.72;2.90;;;;;;;21.86;50.52;100639.95;1733358;81;21194;-60
2021/04/30 06:03:43;;;;;;;4.58;2.95;;;;;;;21.87;50.51;100637.42;1757625;80;21098;-60
2021/04/30 06:06:09;;;;;;;4.12;2.62;;;;;;;21.88;50.50;100639.63;1748190;80;21561;-60
2021/04/30 06:08:35;;;;;;;4.10;2.47;;;;;;;21.89;50.48;100641.27;1769616;79;21161;-60
2021/04/30 06:11:02;;;;;;;4.05;2.60;;;;;;;21.91;50.48;100638.95;1768436;79;21103;-60
2021/04/30 06:13:29;;;;;;;3.12;2.62;;;;;;;21.93;50.44;100648.36;1756496;80;21174;-60
2021/04/30 06:15:57;;;;;;;5.72;3.55;;;;;;;21.92;50.42;100633.70;1755272;80;21161;-60
2021/04/30 06:18:24;;;;;;;3.67;2.72;;;;;;;21.93;50.41;100637.28;1755524;80;21519;-60
2021/04/30 06:20:50;;;;;;;4.15;2.72;;;;;;;21.92;50.40;100643.39;1757552;80;21149;-60
2021/04/30 06:23:17;;;;;;;3.80;3.17;;;;;;;21.91;50.40;100634.80;1772369;80;21173;-60
2021/04/30 06:25:43;;;;;;;5.28;2.92;;;;;;;21.91;50.40;100636.19;1776158;79;21150;-62
2021/04/30 06:28:10;;;;;;;4.35;3.27;;;;;;;21.91;50.41;100636.76;1756644;80;21208;-60
2021/04/30 06:30:37;;;;;;;4.47;3.27;;;;;;;21.90;50.41;100644.84;1773071;80;21411;-60
2021/04/30 06:33:05;;;;;;;6.22;3.30;;;;;;;21.88;50.43;100643.78;1770846;80;21448;-60
2021/04/30 06:35:32;;;;;;;5.45;3.33;;;;;;;21.88;50.44;100635.48;1746404;80;21181;-60
2021/04/30 06:37:59;;;;;;;4.90;3.30;;;;;;;21.86;50.44;100638.56;1762564;80;21122;-61
2021/04/30 06:40:25;;;;;;;4.62;3.20;;;;;;;21.86;50.44;100634.98;1760409;80;21609;-59
2021/04/30 06:42:52;;;;;;;4.95;3.47;;;;;;;21.85;50.44;100628.62;1754371;80;21208;-60
2021/04/30 06:45:18;;;;;;;6.08;3.35;;;;;;;21.83;50.45;100630.92;1745344;80;21173;-60
2021/04/30 06:47:45;;;;;;;5.58;3.50;;;;;;;21.82;50.44;100635.39;1757037;80;21125;-60
2021/04/30 06:50:12;;;;;;;4.58;3.60;;;;;;;21.81;50.45;100631.02;1753198;81;21079;-60
2021/04/30 06:52:39;;;;;;;4.80;3.47;;;;;;;21.78;50.46;100630.27;1709925;82;21179;-60
2021/04/30 06:55:07;;;;;;;6.25;3.80;;;;;;;21.77;50.44;100637.77;1709240;82;21064;-60
2021/04/30 06:57:54;;;;;;;4.97;3.50;;;;;;;21.76;50.44;100636.73;1732130;81;21185;-60
2021/04/30 07:00:22;;;;;;;5.08;4.00;;;;;;;21.74;50.42;100635.66;1680069;83;21136;-60
2021/04/30 07:02:48;;;;;;;4.87;3.47;;;;;;;21.73;50.42;100632.64;1663420;85;21172;-61
2021/04/30 07:05:15;;;;;;;6.15;3.70;;;;;;;21.71;50.40;100630.80;1671005;85;21118;-60
2021/04/30 07:07:41;;;;;;;4.80;3.92;;;;;;;21.70;50.40;100642.19;1682948;83;22164;-60
2021/04/30 07:10:09;;;;;;;5.22;4.15;;;;;;;21.67;50.38;100643.67;1707723;83;21137;-60
2021/04/30 07:12:37;;;;;;;5.55;4.22;;;;;;;21.65;50.41;100646.50;1650370;84;21172;-60
2021/04/30 07:15:08;;;;;;;4.17;3.75;;;;;;;21.62;50.40;100649.94;1707848;83;21208;-60
2021/04/30 07:17:35;;;;;;;5.60;4.05;;;;;;;21.59;50.40;100648.66;1708356;82;21171;-60
2021/04/30 07:20:01;;;;;;;5.83;4.33;;;;;;;21.57;50.40;100649.54;1679211;83;21247;-60
2021/04/30 07:22:28;;;;;;;4.67;4.15;;;;;;;21.54;50.42;100639.12;1712153;82;21129;-60
2021/04/30 07:24:54;;;;;;;5.55;4.33;;;;;;;21.54;50.41;100637.75;1708786;82;21221;-60
2021/04/30 07:27:21;;;;;;;5.85;4.17;;;;;;;21.54;50.42;100637.75;1712202;82;21118;-60
2021/04/30 07:29:48;;;;;;;5.33;4.10;;;;;;;21.55;50.41;100636.61;1710783;82;21159;-60
2021/04/30 07:32:14;;;;;;;5.10;3.75;;;;;;;21.59;50.41;100640.92;1708279;82;21276;-60
2021/04/30 07:34:41;;;;;;;5.00;3.40;;;;;;;21.59;50.38;100652.81;1722965;82;21148;-60
2021/04/30 07:37:07;;;;;;;4.75;3.12;;;;;;;21.60;50.37;100647.48;1710996;82;21192;-60
2021/04/30 07:39:34;;;;;;;4.33;3.40;;;;;;;21.61;50.34;100651.89;1708561;83;21152;-60
2021/04/30 07:42:01;;;;;;;4.42;3.10;;;;;;;21.64;50.31;100656.77;1706881;82;21198;-60
2021/04/30 07:44:27;;;;;;;4.05;3.17;;;;;;;21.67;50.31;100656.12;1704937;82;21305;-62
2021/04/30 07:46:54;;;;;;;4.50;3.27;;;;;;;21.67;50.26;100663.05;1717821;82;21171;-60
2021/04/30 07:49:20;;;;;;;5.15;3.20;;;;;;;21.68;50.25;100659.15;1687827;83;21213;-60
2021/04/30 07:51:47;;;;;;;4.28;3.22;;;;;;;21.70;50.25;100655.47;1718128;82;21177;-60
2021/04/30 07:54:13;;;;;;;4.87;3.17;;;;;;;21.71;50.20;100654.33;1699990;82;21133;-60
2021/04/30 07:56:39;;;;;;;4.25;2.95;;;;;;;21.74;50.19;100655.05;1718963;82;22193;-60
2021/04/30 07:59:06;;;;;;;3.72;3.02;;;;;;;21.76;50.17;100654.73;1691671;83;21238;-60
2021/04/30 08:01:33;;;;;;;4.40;3.02;;;;;;;21.75;50.16;100637.30;1671241;84;21154;-60
2021/04/30 08:03:59;;;;;;;4.87;3.22;;;;;;;21.77;50.14;100636.95;1689907;82;21180;-60
2021/04/30 08:06:26;;;;;;;4.08;3.02;;;;;;;21.78;50.16;100624.73;1689970;82;21664;-60
2021/04/30 08:08:52;;;;;;;4.42;3.15;;;;;;;21.79;50.15;100627.75;1705060;84;22177;-60
2021/04/30 08:11:19;;;;;;;4.00;2.95;;;;;;;21.79;50.13;100625.80;1705702;82;21135;-61
2021/04/30 08:13:46;;;;;;;3.83;2.85;;;;;;;21.82;50.12;100621.55;1705932;83;21160;-60
2021/04/30 08:16:12;;;;;;;3.90;2.75;;;;;;;21.82;50.11;100616.83;1702733;82;21525;-60
2021/04/30 08:18:39;;;;;;;4.42;3.10;;;;;;;21.83;50.10;100618.45;1706520;83;21129;-60
2021/04/30 08:21:05;;;;;;;4.87;3.08;;;;;;;21.84;50.11;100631.17;1705852;82;21308;-60
2021/04/30 08:23:33;;;;;;;3.72;3.12;;;;;;;21.84;50.09;100638.09;1705907;82;21487;-60
2021/04/30 08:25:59;;;;;;;4.28;2.90;;;;;;;21.86;50.08;100634.98;1706590;82;21144;-60
2021/04/30 08:28:26;;;;;;;4.00;3.10;;;;;;;21.86;50.09;100638.56;1705951;82;21081;-60
2021/04/30 08:30:53;;;;;;;3.60;2.83;;;;;;;21.87;50.09;100626.34;1728736;82;21171;-60
2021/04/30 08:33:24;;;;;;;4.83;3.30;;;;;;;21.87;50.08;100629.12;1727091;82;21250;-60
2021/04/30 08:35:49;;;;;;;4.28;3.65;;;;;;;21.86;50.10;100619.17;1709957;82;21189;-60
2021/04/30 08:38:15;;;;;;;4.47;3.27;;;;;;;21.87;50.10;100623.58;1704423;83;21148;-60
2021/04/30 08:40:42;;;;;;;4.92;3.17;;;;;;;21.87;50.10;100628.30;1708908;83;21153;-60
2021/04/30 08:43:08;;;;;;;5.47;3.47;;;;;;;21.86;50.11;100634.41;1706283;82;21155;-60
2021/04/30 08:45:37;;;;;;;5.03;3.85;;;;;;;21.86;50.13;100630.25;1712453;81;21215;-60
2021/04/30 08:48:06;;;;;;;5.20;3.60;;;;;;;21.85;50.14;100630.00;1658827;82;21189;-60
2021/04/30 08:50:33;;;;;;;5.28;3.45;;;;;;;21.85;50.12;100619.53;1679700;84;21164;-60
2021/04/30 08:52:59;;;;;;;4.53;3.50;;;;;;;21.84;50.16;100618.70;1706044;83;21604;-59
2021/04/30 08:55:25;;;;;;;4.58;3.72;;;;;;;21.84;50.15;100608.20;1706716;82;21520;-59
2021/04/30 08:57:54;;;;;;;5.53;3.58;;;;;;;21.82;50.17;100605.75;1692210;84;21336;-60
2021/04/30 09:00:21;;;;;;;4.60;3.40;;;;;;;21.81;50.17;100612.42;1692210;82;21232;-60
2021/04/30 09:02:47;;;;;;;5.80;3.85;;;;;;;21.81;50.17;100586.72;1709632;82;21244;-60
2021/04/30 09:05:21;;;;;;;4.15;3.60;;;;;;;21.79;50.19;100588.98;1708987;83;21077;-60
2021/04/30 09:07:48;;;;;;;5.65;3.70;;;;;;;21.78;50.20;100609.51;1709737;82;21528;-60
2021/04/30 09:10:17;;;;;;;5.70;4.20;;;;;;;21.76;50.21;100616.78;1650831;85;21229;-60
2021/04/30 09:12:49;;;;;;;4.90;3.55;;;;;;;21.76;50.20;100611.24;1650041;85;21573;-60
2021/04/30 09:15:20;;;;;;;6.20;4.12;;;;;;;21.74;50.23;100603.82;1653033;85;21172;-61
2021/04/30 09:17:47;;;;;;;6.33;4.33;;;;;;;21.73;50.22;100608.30;1707566;83;21483;-60
2021/04/30 09:20:14;;;;;;;5.90;4.70;;;;;;;21.73;50.23;100612.45;1682196;84;21193;-60
2021/04/30 09:22:41;;;;;;;6.55;4.58;;;;;;;21.71;50.24;100621.67;1679807;84;21219;-59
2021/04/30 09:25:10;;;;;;;6.12;4.53;;;;;;;21.70;50.25;100608.96;1687716;84;21168;-59
2021/04/30 09:27:44;;;;;;;8.03;4.95;;;;;;;21.68;50.26;100599.62;1685905;84;21595;-60
2021/04/30 09:30:26;;;;;;;7.00;5.00;;;;;;;21.67;50.26;100603.52;1671879;84;21216;-59
2021/04/30 09:33:17;;;;;;;7.00;4.70;;;;;;;21.66;50.27;100599.13;1679208;84;21168;-59
2021/04/30 09:35:53;;;;;;;6.62;5.05;;;;;;;21.65;50.30;100603.59;1673364;84;23549;-59
2021/04/30 09:38:34;;;;;;;6.92;5.05;;;;;;;21.63;50.30;100595.64;1672426;84;21160;-59
2021/04/30 09:41:07;;;;;;;7.55;5.00;;;;;;;21.62;50.30;100593.19;1707627;82;21120;-59
2021/04/30 09:43:51;;;;;;;6.72;5.25;;;;;;;21.60;50.32;100587.97;1708259;82;21564;-60
2021/04/30 09:46:32;;;;;;;7.55;5.97;;;;;;;21.58;50.34;100586.12;1708510;82;21187;-59
2021/04/30 09:49:08;;;;;;;7.70;5.85;;;;;;;21.58;50.34;100583.91;1710836;82;22130;-60
2021/04/30 09:51:50;;;;;;;7.67;5.83;;;;;;;21.56;50.37;100571.78;1646742;85;22072;-60
2021/04/30 09:54:27;;;;;;;;;;;;;;;21.56;50.36;100575.11;1649257;87;21177;-61
2021/04/30 09:57:24;;;;;;;7.20;5.53;;;;;;;21.55;50.37;100580.43;1650131;87;20284;-61
2021/04/30 10:00:11;;;;;;;7.25;5.17;;;;;;;21.53;50.39;100575.21;1648475;85;21145;-60
2021/04/30 10:02:38;;;;;;;8.68;6.20;;;;;;;21.53;50.40;100559.98;1678490;84;21234;-60
2021/04/30 10:05:21;;;;;;;7.30;5.83;;;;;;;21.53;50.43;100557.22;1674138;84;21646;-60
2021/04/30 10:07:47;;;;;;;8.98;6.15;;;;;;;21.53;50.44;100553.06;1668239;85;21565;-61
2021/04/30 10:10:18;;;;;;;8.93;6.47;;;;;;;21.55;50.44;100552.75;1673319;84;21114;-60
2021/04/30 10:12:47;;;;;;;7.80;6.15;;;;;;;21.55;50.45;100562.44;1671573;85;21131;-61
2021/04/30 10:15:19;;;;;;;7.17;5.83;;;;;;;21.57;50.48;100557.37;1672908;84;21228;-61
2021/04/30 10:17:45;;;;;;;7.92;5.70;;;;;;;21.58;50.48;100563.16;1674634;84;26726;-61
2021/04/30 10:20:12;;;;;;;8.73;5.92;;;;;;;21.59;50.49;100555.09;1674306;85;21562;-61
2021/04/30 10:22:41;;;;;;;7.42;6.03;;;;;;;21.61;50.49;100550.84;1677714;84;21194;-61
2021/04/30 10:25:10;;;;;;;7.78;5.28;;;;;;;21.63;50.50;100556.88;1674262;84;21883;-60
2021/04/30 10:27:42;;;;;;;8.05;5.42;;;;;;;21.63;50.52;100538.87;1679198;84;21214;-61
2021/04/30 10:30:46;;;;;;;7.10;5.72;;;;;;;21.65;50.51;100539.34;1673722;84;21192;-61
2021/04/30 10:33:21;;;;;;;6.97;5.95;;;;;;;21.68;50.50;100537.89;1677087;84;21178;-61
2021/04/30 10:36:04;;;;;;;8.03;5.90;;;;;;;21.70;50.49;100535.59;1673396;84;21141;-60
2021/04/30 10:38:34;;;;;;;9.03;6.15;;;;;;;21.70;50.49;100529.48;1679607;84;21181;-60
2021/04/30 10:41:09;;;;;;;7.22;5.60;;;;;;;21.73;50.50;100534.91;1673210;84;21263;-61
2021/04/30 10:43:36;;;;;;;6.85;5.78;;;;;;;21.75;50.48;100532.08;1679204;84;21192;-62
2021/04/30 10:46:15;;;;;;;9.23;6.20;;;;;;;21.76;50.50;100535.09;1673571;85;21148;-60
2021/04/30 10:49:07;;;;;;;7.67;5.72;;;;;;;21.78;50.49;100530.02;1673238;84;21169;-60
2021/04/30 10:51:37;;;;;;;6.37;5.37;;;;;;;21.81;50.47;100532.11;1674218;84;21250;-61
2021/04/30 10:54:26;;;;;;;7.95;6.03;;;;;;;21.84;50.47;100529.27;1682227;84;21223;-61
2021/04/30 10:57:02;;;;;;;5.83;4.87;;;;;;;21.86;50.43;100527.78;1673734;84;21023;-60
2021/04/30 10:59:39;;;;;;;6.42;5.40;;;;;;;21.88;50.42;100526.07;1669912;84;21156;-61
2021/04/30 11:02:21;;;;;;;6.60;5.47;;;;;;;21.90;50.42;100526.53;1685308;83;21585;-62
2021/04/30 11:05:10;;;;;;;6.12;4.92;;;;;;;21.92;50.40;100520.14;1678917;84;21162;-60
2021/04/30 11:07:51;;;;;;;8.50;5.05;;;;;;;21.95;50.40;100517.26;1703321;82;21218;-60
2021/04/30 11:10:32;;;;;;;5.78;4.90;;;;;;;21.98;50.40;100529.86;1707353;82;21886;-60
2021/04/30 11:13:02;;;;;;;7.53;5.42;;;;;;;22.01;50.39;100528.41;1681613;84;21162;-60
2021/04/30 11:15:34;;;;;;;7.05;4.85;;;;;;;22.03;50.39;100511.67;1727839;82;21143;-60
2021/04/30 11:18:02;;;;;;;6.37;4.60;;;;;;;22.06;50.38;100522.11;1681401;84;21099;-61
2021/04/30 11:20:34;;;;;;;6.53;5.22;;;;;;;22.09;50.37;100520.62;1723496;81;21722;-60
2021/04/30 11:23:27;;;;;;;6.83;5.05;;;;;;;22.11;50.39;100521.89;1687446;83;21568;-61
2021/04/30 11:26:01;;;;;;;5.90;5.17;;;;;;;22.15;50.38;100510.98;1712092;82;21129;-60
2021/04/30 11:28:36;;;;;;;6.55;5.33;;;;;;;22.19;50.37;100510.55;1680123;84;21022;-61
2021/04/30 11:31:16;;;;;;;6.47;4.72;;;;;;;22.21;50.36;100504.08;1678871;84;21181;-61
2021/04/30 11:34:12;;;;;;;5.62;4.92;;;;;;;22.24;50.37;100488.16;1685770;84;21089;-60
2021/04/30 11:36:40;;;;;;;7.28;5.65;;;;;;;22.27;50.36;100490.28;1703317;82;21162;-61